Weather reports worldwide

Advertisment
Malaga,Puerto, Spain (8479): temperature & dewpoint: 03.08.2020 22:00:00 - 09.08.2020 22:00:00 (CEST)Malaga,Puerto, Spain (8479): wind speed & gusts: 03.08.2020 22:00:00 - 09.08.2020 22:00:00 (CEST)Malaga,Puerto, Spain (8479): wind direction: 03.08.2020 22:00:00 - 09.08.2020 22:00:00 (CEST)Malaga,Puerto, Spain (8479): reduced air pressure: 03.08.2020 22:00:00 - 09.08.2020 22:00:00 (CEST)Malaga,Puerto, Spain (8479): precipitation: 03.08.2020 22:00:00 - 09.08.2020 22:00:00 (CEST)
Date & Time tt [°C] td [°C] ff [km/h] ff [kn] fx [km/h] fx [kn] dd ppp [hPa] rr [mm]
09.08.2020 22:00:00 - - - - - - - - -
09.08.2020 21:00:00 28,6 15,5 4 2 8 4 E 1010,3 0,0
09.08.2020 20:00:00 28,6 15,9 5 3 10 6 ESE 1010,2 -
09.08.2020 19:00:00 29,1 17,0 5 3 11 6 SE 1010,4 0,0
09.08.2020 18:00:00 29,1 15,6 8 4 10 5 SSE 1010,5 0,0
09.08.2020 17:00:00 30,4 16,4 5 3 10 5 SSE 1011,1 0,0
09.08.2020 16:00:00 29,8 19,8 4 2 13 7 SSE 1011,8 0,0
09.08.2020 15:00:00 29,1 20,8 7 4 12 7 SSE 1012,3 0,0
09.08.2020 14:00:00 28,2 18,8 0 0 11 6 SSE 1012,6 -
09.08.2020 13:00:00 27,9 18,0 9 5 13 7 SE 1013,0 0,0
09.08.2020 12:00:00 29,2 15,7 6 3 11 6 SE 1013,0 0,0
09.08.2020 11:00:00 30,6 13,4 0 0 2 1 SSE 1012,7 0,0
09.08.2020 10:00:00 31,0 11,9 0 0 10 5 SW 1013,1 0,0
09.08.2020 09:00:00 25,9 9,3 8 5 15 8 NW 1013,6 0,0
09.08.2020 08:00:00 24,6 8,9 6 3 16 8 NNW 1014,2 -
09.08.2020 07:00:00 24,9 10,4 3 2 14 8 NNW 1014,1 0,0
09.08.2020 06:00:00 24,9 12,8 0 0 2 1 NW 1014,2 0,0
09.08.2020 05:00:00 24,8 13,1 0 0 7 4 WSW 1014,1 0,0
09.08.2020 04:00:00 25,2 12,4 2 1 11 6 NNW 1014,2 0,0
09.08.2020 03:00:00 25,6 13,2 0 0 11 6 NNW 1014,2 0,0
09.08.2020 02:00:00 25,7 13,6 5 3 11 6 N 1014,4 -
09.08.2020 01:00:00 26,0 14,1 4 2 9 5 N 1015,0 0,0
09.08.2020 00:00:00 26,8 14,9 1 0 6 3 N 1015,3 0,0
08.08.2020 23:00:00 26,9 17,9 0 0 4 2 SE 1015,2 0,0
08.08.2020 22:00:00 26,7 16,6 0 0 8 4 SSE 1014,6 0,0
08.08.2020 21:00:00 27,0 17,5 5 3 10 5 SSE 1014,3 0,0
08.08.2020 20:00:00 27,0 16,9 6 4 12 6 SE 1014,0 -
08.08.2020 19:00:00 28,9 17,5 4 2 12 7 ESE 1013,8 0,0
08.08.2020 18:00:00 29,2 16,4 5 3 10 5 SSE 1014,3 0,0
08.08.2020 17:00:00 28,9 17,1 7 4 16 9 SSE 1014,7 0,0
08.08.2020 16:00:00 28,5 17,7 11 6 16 9 S 1015,0 0,0
08.08.2020 15:00:00 28,8 18,2 10 6 16 9 S 1015,4 0,0
08.08.2020 14:00:00 28,6 18,4 13 7 16 9 S 1016,2 -
08.08.2020 13:00:00 29,6 15,7 10 6 16 9 SSE 1016,2 0,0
08.08.2020 12:00:00 29,9 12,7 0 0 10 5 SSE 1016,1 0,0
08.08.2020 11:00:00 31,1 13,0 2 1 8 4 SE 1016,0 0,0
08.08.2020 10:00:00 29,7 14,2 0 0 4 2 SW 1016,0 0,0
08.08.2020 09:00:00 26,8 13,2 2 1 14 8 N 1017,1 0,0
08.08.2020 08:00:00 25,6 13,8 3 2 14 7 NNW 1017,2 -
08.08.2020 07:00:00 25,0 14,1 8 4 14 8 N 1017,1 0,0
08.08.2020 06:00:00 24,6 17,3 0 0 7 4 WNW 1016,9 0,0
08.08.2020 05:00:00 24,7 15,3 4 2 16 9 NNW 1016,0 0,0
08.08.2020 04:00:00 24,8 16,5 2 1 14 8 N 1016,2 0,0
08.08.2020 03:00:00 24,9 18,1 1 1 10 5 NNW 1016,9 0,0
08.08.2020 02:00:00 25,5 19,4 0 0 9 5 NNW 1016,8 -
08.08.2020 01:00:00 25,4 19,8 1 1 13 7 NNW 1017,0 0,0
08.08.2020 00:00:00 25,7 20,7 0 0 1 1 S 1017,5 0,0
07.08.2020 23:00:00 25,7 20,7 0 0 5 3 SSW 1016,6 0,0
07.08.2020 22:00:00 25,6 20,6 0 0 9 5 SSE 1015,8 0,0
07.08.2020 21:00:00 26,1 20,2 4 2 12 6 SE 1015,3 0,0
07.08.2020 20:00:00 26,8 20,2 5 3 14 8 SE 1014,7 -
07.08.2020 19:00:00 27,4 20,0 5 3 17 9 SSE 1014,9 0,0
07.08.2020 18:00:00 27,7 19,8 10 6 17 9 S 1015,0 0,0
07.08.2020 17:00:00 27,8 20,4 12 7 18 10 S 1015,1 0,0
07.08.2020 16:00:00 27,8 20,1 12 6 18 10 S 1015,4 0,0
07.08.2020 15:00:00 28,2 20,5 10 5 18 10 S 1015,7 0,0
07.08.2020 14:00:00 28,2 20,5 10 5 17 9 S 1015,9 -
07.08.2020 13:00:00 28,1 20,4 10 6 19 10 S 1015,8 0,0
07.08.2020 12:00:00 28,3 20,6 11 6 21 11 S 1015,8 0,0
07.08.2020 11:00:00 27,3 20,7 9 5 18 10 SSW 1015,5 0,0
07.08.2020 10:00:00 27,6 19,6 0 0 8 4 SSW 1015,0 0,0
07.08.2020 09:00:00 26,1 17,7 3 2 10 6 N 1014,6 0,0
07.08.2020 08:00:00 24,6 17,1 2 1 11 6 N 1014,8 -
07.08.2020 07:00:00 24,7 17,2 5 3 10 5 N 1014,3 0,0
07.08.2020 06:00:00 24,8 17,3 1 0 8 5 N 1013,7 0,0
07.08.2020 05:00:00 25,5 17,9 0 0 6 3 NW 1013,6 0,0
07.08.2020 04:00:00 25,4 17,1 1 1 11 6 N 1013,9 0,0
07.08.2020 03:00:00 25,7 18,6 0 0 9 5 WSW 1014,5 0,0
07.08.2020 02:00:00 26,2 18,8 6 3 15 8 SE 1014,9 -
07.08.2020 01:00:00 26,5 18,4 6 3 19 10 SE 1014,5 0,0
07.08.2020 00:00:00 26,5 17,9 10 5 19 10 E 1014,6 0,0
06.08.2020 23:00:00 27,1 17,3 7 4 19 10 ENE 1014,5 0,0
06.08.2020 22:00:00 26,7 17,5 5 3 14 8 SE 1013,8 0,0
06.08.2020 21:00:00 27,5 16,5 4 2 12 6 S 1012,4 0,0
06.08.2020 20:00:00 28,2 16,5 5 3 14 8 SE 1011,7 -
06.08.2020 19:00:00 28,3 16,6 9 5 16 8 SSE 1011,1 0,0
06.08.2020 18:00:00 28,7 16,3 13 7 19 10 S 1011,1 0,0
06.08.2020 17:00:00 29,4 16,6 1 1 15 8 SSW 1011,5 0,0
06.08.2020 16:00:00 29,9 16,6 9 5 16 9 S 1011,8 0,0
06.08.2020 15:00:00 29,3 16,8 12 6 19 10 S 1012,1 0,0
06.08.2020 14:00:00 29,7 17,2 10 5 14 8 SSW 1012,2 -
06.08.2020 13:00:00 29,5 17,3 10 5 17 9 S 1012,2 0,0
06.08.2020 12:00:00 29,6 18,1 0 0 3 1 S 1012,0 0,0
06.08.2020 11:00:00 30,5 17,5 0 0 2 1 S 1011,5 0,0
06.08.2020 10:00:00 28,8 17,1 0 0 1 1 SW 1011,0 0,0
06.08.2020 09:00:00 25,9 16,7 0 0 17 9 NNW 1011,1 0,0
06.08.2020 08:00:00 24,6 16,3 9 5 16 8 NNW 1011,5 -
06.08.2020 07:00:00 24,6 16,0 5 3 15 8 N 1011,2 0,0
06.08.2020 06:00:00 24,7 15,9 5 3 14 7 N 1010,7 0,0
06.08.2020 05:00:00 24,7 15,9 3 2 14 8 N 1010,8 0,0
06.08.2020 04:00:00 25,0 15,9 3 2 11 6 N 1010,7 0,0
06.08.2020 03:00:00 25,4 16,6 5 3 12 7 N 1011,1 0,0
06.08.2020 02:00:00 25,8 16,9 0 0 4 2 NNW 1011,1 -
06.08.2020 01:00:00 25,5 18,2 0 0 1 1 NNW 1011,0 0,0
06.08.2020 00:00:00 26,3 18,9 0 0 1 0 SSE 1010,7 0,0
05.08.2020 23:00:00 26,5 18,9 0 0 1 1 S 1010,4 0,0
05.08.2020 22:00:00 26,4 18,5 0 0 8 4 SE 1009,5 0,0
05.08.2020 21:00:00 27,2 18,2 4 2 10 6 S 1009,0 0,0
05.08.2020 20:00:00 28,3 17,5 4 2 13 7 S 1008,6 -
05.08.2020 19:00:00 28,3 18,1 9 5 13 7 S 1008,6 0,0
05.08.2020 18:00:00 29,2 18,0 8 5 17 9 S 1008,8 0,0
05.08.2020 17:00:00 29,5 17,7 10 6 16 8 SSE 1008,9 0,0
05.08.2020 16:00:00 29,4 19,1 9 5 14 7 S 1009,1 0,0
05.08.2020 15:00:00 29,2 18,9 7 4 14 8 S 1009,5 0,0
05.08.2020 14:00:00 28,4 19,3 10 6 15 8 S 1010,1 -
05.08.2020 13:00:00 29,1 19,7 9 5 16 9 S 1010,4 0,0
05.08.2020 12:00:00 28,9 19,3 0 0 3 1 S 1010,3 0,0
05.08.2020 11:00:00 29,2 19,2 0 0 4 2 S 1010,0 0,0
05.08.2020 10:00:00 28,6 21,1 1 0 7 4 SSE 1010,0 0,0
05.08.2020 09:00:00 27,4 20,7 0 0 8 5 NE 1009,8 0,0
05.08.2020 08:00:00 25,2 20,0 2 1 9 5 N 1010,3 -
05.08.2020 07:00:00 26,1 22,0 0 0 6 3 ENE 1010,4 0,0
05.08.2020 06:00:00 24,4 21,7 0 0 1 0 NW 1010,2 0,0
05.08.2020 05:00:00 25,4 22,5 0 0 0 0 SSW 1010,5 0,0
05.08.2020 04:00:00 25,4 22,5 0 0 6 4 E 1010,4 0,0
05.08.2020 03:00:00 25,5 22,6 0 0 1 1 SSE 1010,7 0,0
05.08.2020 02:00:00 25,5 22,6 0 0 5 3 SW 1010,9 -
05.08.2020 01:00:00 25,6 22,5 2 1 5 3 ESE 1011,1 0,0
05.08.2020 00:00:00 25,7 22,0 2 1 7 4 ESE 1011,0 0,0
04.08.2020 23:00:00 26,0 21,9 2 1 6 4 SSE 1010,6 0,0
04.08.2020 22:00:00 26,1 21,3 0 0 6 4 SE 1009,9 0,0
04.08.2020 21:00:00 27,0 20,6 2 1 8 5 ESE 1009,2 0,0
04.08.2020 20:00:00 27,4 20,5 2 1 9 5 SE 1009,3 -
04.08.2020 19:00:00 27,4 20,3 5 3 10 5 SE 1009,5 0,0
04.08.2020 18:00:00 28,7 20,7 5 3 10 5 ESE 1009,8 0,0
04.08.2020 17:00:00 28,1 20,7 0 0 3 1 S 1010,4 0,0
04.08.2020 16:00:00 28,2 20,7 0 0 11 6 S 1010,8 0,0
04.08.2020 15:00:00 27,6 20,4 6 3 14 7 ESE 1011,1 0,0
04.08.2020 14:00:00 26,8 21,8 8 5 15 8 SSE 1011,6 -
04.08.2020 13:00:00 26,0 22,1 10 5 18 10 SSE 1011,8 0,0
04.08.2020 12:00:00 26,0 22,1 15 8 19 10 SE 1011,6 0,0
04.08.2020 11:00:00 27,0 21,3 1 0 10 5 SSE 1011,2 0,0
04.08.2020 10:00:00 27,9 18,0 3 1 8 4 SSE 1010,9 0,0
04.08.2020 09:00:00 26,5 16,7 1 1 13 7 NNE 1011,0 0,0
04.08.2020 08:00:00 25,1 16,2 0 0 9 5 N 1010,5 -
04.08.2020 07:00:00 24,5 22,0 5 3 14 8 ENE 1010,3 0,0
04.08.2020 06:00:00 24,6 22,3 6 4 15 8 E 1010,1 0,0
04.08.2020 05:00:00 24,8 22,3 7 4 19 11 E 1009,9 0,0
04.08.2020 04:00:00 24,9 22,4 7 4 18 10 ESE 1010,1 0,0
04.08.2020 03:00:00 25,2 22,3 6 4 22 12 ESE 1009,9 0,0
04.08.2020 02:00:00 25,8 21,4 3 2 17 9 E 1010,2 -
04.08.2020 01:00:00 26,8 20,4 4 2 18 10 ENE 1009,8 0,0
04.08.2020 00:00:00 28,0 19,0 11 6 21 12 E 1009,6 0,0
03.08.2020 23:00:00 27,9 19,9 8 4 23 13 E 1008,7 0,0
03.08.2020 22:00:00 27,2 18,2 9 5 26 14 E 1007,8 0,0

tt = temperature
td = dewpoint
ff = wind speed
fx = gusts
dd = wind direction
ppp = reduced air pressure
rr = precipitation

Next stations